Time;durP1;ratioP1;P1;durP2;ratioP2;P2;SDS_P1;SDS_P2;PMS_P1;PMS_P2;Temp;Humidity;BMP_temperature;BMP_pressure;BME280_temperature;BME280_humidity;BME280_pressure;Samples;Min_cycle;Max_cycle;Signal;HPM_P1;HPM_P2
2023/05/21 00:02:18;;;;;;;9.90;7.57;;;;;;;12.67;99.83;101135.50;6113347;23;20041;-73
2023/05/21 00:04:45;;;;;;;26.63;7.88;;;;;;;12.72;100.00;101135.22;6092119;23;20930;-72
2023/05/21 00:07:12;;;;;;;8.65;7.22;;;;;;;12.41;100.00;101086.00;6088373;23;20022;-72
2023/05/21 00:09:38;;;;;;;8.98;8.07;;;;;;;12.90;100.00;101173.72;6090338;23;20083;-72
2023/05/21 00:12:06;;;;;;;8.18;7.38;;;;;;;12.74;100.00;101149.16;6117595;23;20028;-72
2023/05/21 00:14:33;;;;;;;8.32;7.53;;;;;;;13.01;100.00;101202.16;6101632;23;20038;-72
2023/05/21 00:17:00;;;;;;;8.75;7.97;;;;;;;12.96;100.00;101194.47;6126278;23;20468;-72
2023/05/21 00:19:26;;;;;;;8.55;7.72;;;;;;;12.95;100.00;101191.94;6129464;23;20730;-71
2023/05/21 00:21:53;;;;;;;7.93;7.10;;;;;;;12.93;100.00;101192.03;6093357;23;20075;-72
2023/05/21 00:24:20;;;;;;;8.25;7.38;;;;;;;12.92;100.00;101186.84;6094396;23;20472;-72
2023/05/21 00:26:46;;;;;;;9.00;8.15;;;;;;;12.56;100.00;101125.50;6120831;23;20019;-72
2023/05/21 00:29:13;;;;;;;8.73;7.82;;;;;;;12.44;100.00;101109.53;6113650;23;20017;-72
2023/05/21 00:31:41;;;;;;;9.90;7.28;;;;;;;12.83;100.00;101188.19;6099768;23;20492;-72
2023/05/21 00:34:08;;;;;;;10.52;7.80;;;;;;;12.78;100.00;101177.88;6113606;23;20114;-72
2023/05/21 00:36:35;;;;;;;7.85;7.05;;;;;;;12.51;100.00;101145.16;6099206;23;20021;-72
2023/05/21 00:39:03;;;;;;;9.18;6.97;;;;;;;12.51;100.00;101159.16;6124198;23;20036;-72
2023/05/21 00:41:29;;;;;;;8.13;7.18;;;;;;;12.65;100.00;101184.75;6096684;23;20014;-72
2023/05/21 00:43:59;;;;;;;8.80;7.97;;;;;;;12.25;100.00;101120.16;6118402;23;20057;-72
2023/05/21 00:46:27;;;;;;;9.57;7.68;;;;;;;12.43;100.00;101149.94;6110866;23;20043;-72
2023/05/21 00:48:56;;;;;;;7.63;6.80;;;;;;;12.64;100.00;101176.94;6096276;23;20026;-72
2023/05/21 00:51:24;;;;;;;9.52;7.22;;;;;;;12.16;100.00;101096.03;6123493;23;20033;-72
2023/05/21 00:53:51;;;;;;;8.18;7.43;;;;;;;12.34;100.00;101117.91;6114522;23;20740;-73
2023/05/21 00:56:20;;;;;;;10.48;7.50;;;;;;;12.31;100.00;101110.19;6116677;23;20025;-72
2023/05/21 00:58:47;;;;;;;8.70;7.78;;;;;;;12.64;100.00;101171.66;6118726;23;20017;-72
2023/05/21 01:01:14;;;;;;;7.70;6.63;;;;;;;12.58;100.00;101163.13;6120651;23;20070;-72
2023/05/21 01:03:41;;;;;;;8.20;7.13;;;;;;;12.45;100.00;101130.53;6118259;23;20045;-72
2023/05/21 01:06:09;;;;;;;8.57;7.70;;;;;;;12.61;100.00;101162.16;6124230;23;20025;-72
2023/05/21 01:08:37;;;;;;;7.78;7.18;;;;;;;12.65;100.00;101163.69;6115212;23;20378;-72
2023/05/21 01:11:05;;;;;;;9.15;7.38;;;;;;;12.12;100.00;101093.66;6095835;23;20085;-72
2023/05/21 01:13:35;;;;;;;12.70;6.82;;;;;;;12.44;100.00;101141.13;6112214;23;20040;-72
2023/05/21 01:16:05;;;;;;;12.07;7.40;;;;;;;11.52;100.00;100989.75;6089668;23;20512;-72
2023/05/21 01:18:42;;;;;;;10.05;7.25;;;;;;;12.28;100.00;101118.22;6091895;23;20022;-72
2023/05/21 01:21:09;;;;;;;8.93;7.43;;;;;;;12.12;100.00;101096.28;6123933;23;20024;-73
2023/05/21 01:23:38;;;;;;;7.90;7.10;;;;;;;11.96;100.00;101080.47;6093573;23;20014;-72
2023/05/21 01:26:06;;;;;;;9.27;7.25;;;;;;;12.45;100.00;101148.06;6117515;23;20393;-72
2023/05/21 01:28:33;;;;;;;8.63;7.45;;;;;;;12.41;100.00;101159.69;6101805;23;20515;-72
2023/05/21 01:31:19;;;;;;;7.50;6.80;;;;;;;12.07;100.00;101107.06;6087158;23;20037;-71
2023/05/21 01:33:48;;;;;;;8.32;7.47;;;;;;;12.35;100.00;101145.94;6090041;23;20648;-72
2023/05/21 01:36:25;;;;;;;8.35;7.47;;;;;;;12.33;100.00;101155.69;6118189;23;20077;-72
2023/05/21 01:39:00;;;;;;;8.80;7.68;;;;;;;12.23;100.00;101141.31;6092253;23;20033;-72
2023/05/21 01:41:31;;;;;;;8.25;7.35;;;;;;;12.14;100.00;101129.47;6114233;23;20629;-72
2023/05/21 01:44:02;;;;;;;10.52;7.57;;;;;;;11.87;100.00;101083.53;6087820;23;20105;-72
2023/05/21 01:46:31;;;;;;;8.90;6.97;;;;;;;11.99;100.00;101103.97;6115349;23;20029;-72
2023/05/21 01:48:58;;;;;;;8.43;7.63;;;;;;;12.30;100.00;101142.69;6091257;23;20014;-71
2023/05/21 01:51:25;;;;;;;12.40;8.70;;;;;;;12.00;100.00;101102.19;6113506;23;20017;-72
2023/05/21 01:53:51;;;;;;;10.38;8.80;;;;;;;11.91;100.00;101099.13;6091772;23;20841;-72
2023/05/21 01:56:18;;;;;;;9.02;7.82;;;;;;;11.71;100.00;101060.66;6110757;23;20040;-71
2023/05/21 01:58:44;;;;;;;8.40;7.55;;;;;;;12.14;100.00;101132.09;6118015;23;20651;-72
2023/05/21 02:01:11;;;;;;;10.02;7.97;;;;;;;12.13;100.00;101129.59;6122941;23;20036;-71
2023/05/21 02:03:38;;;;;;;9.60;8.52;;;;;;;11.93;100.00;101099.03;6097484;23;20668;-71
2023/05/21 02:06:04;;;;;;;9.75;7.90;;;;;;;12.04;100.00;101130.88;6100164;23;20513;-71
2023/05/21 02:08:32;;;;;;;8.20;7.53;;;;;;;12.09;100.00;101138.56;6109922;23;20040;-72
2023/05/21 02:10:58;;;;;;;12.02;7.95;;;;;;;12.04;100.00;101138.78;6107043;23;20025;-72
2023/05/21 02:13:25;;;;;;;9.50;8.43;;;;;;;12.01;100.00;101130.19;6111978;23;20045;-72
2023/05/21 02:15:53;;;;;;;12.82;8.70;;;;;;;11.68;100.00;101081.00;6088927;23;20009;-72
2023/05/21 02:18:20;;;;;;;12.55;7.93;;;;;;;11.45;100.00;101046.22;6113320;23;20271;-71
2023/05/21 02:20:47;;;;;;;8.40;7.70;;;;;;;11.55;100.00;101078.97;6086947;23;20488;-71
2023/05/21 02:23:13;;;;;;;11.35;8.05;;;;;;;11.90;100.00;101133.38;6109499;23;20037;-72
2023/05/21 02:25:39;;;;;;;8.57;7.78;;;;;;;11.35;100.00;101043.19;6098170;23;20022;-72
2023/05/21 02:28:06;;;;;;;15.57;8.45;;;;;;;11.89;100.00;101132.53;6113374;23;20025;-72
2023/05/21 02:30:33;;;;;;;11.85;8.32;;;;;;;11.87;100.00;101123.84;6099386;23;20022;-72
2023/05/21 02:32:59;;;;;;;11.30;8.73;;;;;;;11.54;100.00;101069.38;6084431;23;20033;-72
2023/05/21 02:35:26;;;;;;;14.43;8.48;;;;;;;11.88;100.00;101129.94;6115970;23;20033;-72
2023/05/21 02:37:57;;;;;;;14.20;9.85;;;;;;;11.30;100.00;101036.44;6116906;23;20241;-71
2023/05/21 02:40:24;;;;;;;12.25;8.93;;;;;;;11.49;100.00;101074.03;6098340;23;20025;-71
2023/05/21 02:42:50;;;;;;;10.27;8.48;;;;;;;11.48;100.00;101069.69;6083670;23;20604;-72
2023/05/21 02:45:17;;;;;;;8.98;7.47;;;;;;;11.79;100.00;101118.13;6117778;23;20452;-72
2023/05/21 02:47:43;;;;;;;9.38;8.48;;;;;;;11.30;100.00;101034.66;6085633;23;20049;-72
2023/05/21 02:50:12;;;;;;;11.07;8.95;;;;;;;11.35;100.00;101039.72;6119137;23;20041;-72
2023/05/21 02:52:38;;;;;;;8.23;7.38;;;;;;;11.33;100.00;101034.53;6086310;23;20045;-72
2023/05/21 02:55:05;;;;;;;11.52;8.07;;;;;;;11.64;100.00;101095.22;6115462;23;20045;-72
2023/05/21 02:57:32;;;;;;;10.70;8.00;;;;;;;11.51;100.00;101061.66;6088777;23;20085;-72
2023/05/21 02:59:58;;;;;;;9.65;8.05;;;;;;;11.50;100.00;101059.94;6119975;23;20029;-72
2023/05/21 03:02:25;;;;;;;9.18;8.23;;;;;;;11.79;100.00;101112.84;6112404;23;20100;-72
2023/05/21 03:04:51;;;;;;;8.48;7.68;;;;;;;11.51;100.00;101063.44;6081376;23;20026;-71
2023/05/21 03:07:18;;;;;;;14.80;7.47;;;;;;;11.65;100.00;101091.69;6119418;23;20081;-72
2023/05/21 03:09:45;;;;;;;8.30;7.47;;;;;;;11.42;100.00;101054.22;6085754;23;20018;-72
2023/05/21 03:12:12;;;;;;;8.80;7.93;;;;;;;11.54;100.00;101068.53;6104712;23;20094;-72
2023/05/21 03:14:41;;;;;;;8.00;7.10;;;;;;;11.47;100.00;101052.25;6099482;23;20033;-72
2023/05/21 03:17:07;;;;;;;12.05;7.25;;;;;;;11.71;100.00;101092.22;6119863;23;20021;-73
2023/05/21 03:19:35;;;;;;;10.95;8.05;;;;;;;11.71;100.00;101091.38;6115859;23;20496;-72
2023/05/21 03:22:05;;;;;;;8.57;7.03;;;;;;;11.74;100.00;101101.72;6112284;23;20623;-72
2023/05/21 03:24:32;;;;;;;7.82;7.20;;;;;;;11.73;100.00;101100.88;6095421;23;20056;-72
2023/05/21 03:27:00;;;;;;;14.60;7.75;;;;;;;11.45;100.00;101054.09;6116965;23;20026;-72
2023/05/21 03:29:27;;;;;;;8.25;7.45;;;;;;;11.28;100.00;101022.53;6087711;23;20036;-71
2023/05/21 03:31:54;;;;;;;8.43;7.65;;;;;;;11.52;100.00;101055.47;6085184;23;20018;-72
2023/05/21 03:34:20;;;;;;;12.45;8.95;;;;;;;11.79;100.00;101097.09;6116272;23;20838;-72
2023/05/21 03:36:47;;;;;;;8.90;8.05;;;;;;;11.82;100.00;101093.44;6090388;23;20025;-72
2023/05/21 03:39:14;;;;;;;8.32;7.38;;;;;;;10.77;100.00;100928.72;6104607;23;20025;-72
2023/05/21 03:41:40;;;;;;;8.05;7.35;;;;;;;11.83;100.00;101097.78;6113474;23;20025;-72
2023/05/21 03:44:07;;;;;;;9.55;7.43;;;;;;;11.65;100.00;101075.91;6088644;23;20026;-73
2023/05/21 03:46:33;;;;;;;8.50;6.72;;;;;;;11.70;100.00;101076.50;6116539;23;20067;-73
2023/05/21 03:49:00;;;;;;;8.50;7.07;;;;;;;11.87;100.00;101094.91;6109195;23;20037;-74
2023/05/21 03:51:26;;;;;;;9.18;7.63;;;;;;;11.89;100.00;101095.72;6092263;23;20021;-74
2023/05/21 03:53:53;;;;;;;7.93;7.10;;;;;;;11.23;100.00;100985.16;6114585;23;20661;-74
2023/05/21 03:56:20;;;;;;;11.70;7.97;;;;;;;11.41;100.00;101014.91;6089485;23;20232;-74
2023/05/21 03:58:46;;;;;;;17.20;7.32;;;;;;;11.95;100.00;101100.66;6077800;23;20024;-73
2023/05/21 04:01:13;;;;;;;7.97;7.18;;;;;;;11.93;100.00;101107.78;6113737;23;20025;-73
2023/05/21 04:03:39;;;;;;;10.00;8.63;;;;;;;11.77;100.00;101083.16;6108923;23;20060;-73
2023/05/21 04:06:08;;;;;;;10.32;7.78;;;;;;;11.31;100.00;101006.63;6095482;23;20038;-72
2023/05/21 04:08:36;;;;;;;9.90;8.15;;;;;;;12.01;100.00;101102.13;6109499;23;20021;-73
2023/05/21 04:11:03;;;;;;;8.15;7.35;;;;;;;12.02;100.00;101113.50;6065185;23;20044;-73
2023/05/21 04:13:29;;;;;;;7.38;6.68;;;;;;;12.05;100.00;101108.09;6115602;23;20024;-72
2023/05/21 04:15:56;;;;;;;9.82;8.30;;;;;;;12.06;100.00;101109.78;6116782;23;20510;-73
2023/05/21 04:18:24;;;;;;;9.98;8.23;;;;;;;12.06;100.00;101107.13;6117258;23;20078;-73
2023/05/21 04:20:51;;;;;;;7.82;7.03;;;;;;;11.79;100.00;101057.63;6080630;23;20034;-73
2023/05/21 04:23:17;;;;;;;8.68;7.55;;;;;;;12.11;100.00;101105.13;6113833;23;20036;-73
2023/05/21 04:25:44;;;;;;;10.93;7.82;;;;;;;11.10;100.00;100938.47;6115459;23;20025;-73
2023/05/21 04:28:18;;;;;;;8.70;7.80;;;;;;;11.71;100.00;101023.00;6113120;23;20669;-73
2023/05/21 04:30:46;;;;;;;9.00;7.97;;;;;;;11.69;100.00;101033.59;6107983;23;20025;-73
2023/05/21 04:33:16;;;;;;;8.43;7.65;;;;;;;11.77;100.00;101030.56;6111394;23;20025;-73
2023/05/21 04:35:48;;;;;;;8.95;8.10;;;;;;;11.86;100.00;101045.84;6063370;23;20613;-73
2023/05/21 04:38:19;;;;;;;12.70;8.35;;;;;;;12.34;100.00;101114.44;6111982;23;20034;-73
2023/05/21 04:40:52;;;;;;;8.55;7.70;;;;;;;11.36;100.00;100949.44;6108102;23;20028;-73
2023/05/21 04:43:27;;;;;;;8.52;7.38;;;;;;;12.36;100.00;101115.19;6117952;23;20477;-73
2023/05/21 04:45:53;;;;;;;10.07;8.57;;;;;;;12.38;100.00;101111.56;6079859;23;20739;-73
2023/05/21 04:48:21;;;;;;;8.73;7.85;;;;;;;12.32;100.00;101103.13;6114923;23;20029;-73
2023/05/21 04:50:48;;;;;;;10.25;7.47;;;;;;;12.28;100.00;101088.44;6083404;23;20027;-73
2023/05/21 04:53:14;;;;;;;7.93;7.15;;;;;;;12.00;100.00;101033.81;6117574;23;21539;-73
2023/05/21 04:55:41;;;;;;;9.68;7.90;;;;;;;12.53;100.00;101119.59;6089181;23;20027;-73
2023/05/21 04:58:11;;;;;;;10.63;8.20;;;;;;;12.48;100.00;101098.75;6118761;23;20037;-73
2023/05/21 05:00:40;;;;;;;8.02;7.22;;;;;;;12.26;100.00;101070.09;6115656;23;20076;-73
2023/05/21 05:03:07;;;;;;;10.50;7.25;;;;;;;12.64;100.00;101119.00;6090891;23;20045;-72
2023/05/21 05:05:33;;;;;;;9.30;7.25;;;;;;;12.34;100.00;101078.44;6115601;23;20714;-73
2023/05/21 05:08:01;;;;;;;9.20;7.55;;;;;;;12.69;100.00;101114.31;6097921;23;20033;-73
2023/05/21 05:10:30;;;;;;;10.75;8.68;;;;;;;12.73;100.00;101116.72;6113034;23;20048;-72
2023/05/21 05:12:56;;;;;;;13.07;8.77;;;;;;;12.72;100.00;101099.19;6100331;23;20009;-73
2023/05/21 05:15:22;;;;;;;8.95;7.97;;;;;;;12.39;100.00;101051.88;6113590;23;20017;-73
2023/05/21 05:17:49;;;;;;;7.93;7.20;;;;;;;12.57;100.00;101068.47;6114770;23;20023;-73
2023/05/21 05:20:16;;;;;;;9.90;8.98;;;;;;;12.77;100.00;101091.91;6112276;23;20025;-73
2023/05/21 05:22:42;;;;;;;8.90;8.05;;;;;;;12.94;100.00;101111.19;6118540;23;20029;-72
2023/05/21 05:25:08;;;;;;;10.65;9.60;;;;;;;12.95;100.00;101129.56;6077663;23;20045;-73
2023/05/21 05:27:35;;;;;;;7.25;6.63;;;;;;;12.90;100.00;101094.72;6011038;23;20091;-73
2023/05/21 05:30:04;;;;;;;11.38;8.63;;;;;;;11.32;100.00;100832.28;6091118;23;20034;-73
2023/05/21 05:32:30;;;;;;;7.65;6.95;;;;;;;12.68;100.00;101036.25;6114797;23;21480;-73
2023/05/21 05:34:57;;;;;;;8.57;7.72;;;;;;;11.88;100.00;100911.66;6095311;23;20037;-73
2023/05/21 05:37:26;;;;;;;8.05;6.40;;;;;;;12.66;100.00;101017.06;6118992;23;20017;-73
2023/05/21 05:39:52;;;;;;;8.63;7.25;;;;;;;12.56;100.00;101006.19;6092724;23;20026;-73
2023/05/21 05:42:19;;;;;;;9.52;7.82;;;;;;;13.25;100.00;101106.81;6108388;23;20091;-73
2023/05/21 05:44:45;;;;;;;8.60;7.70;;;;;;;13.22;100.00;101099.13;6112812;23;20025;-72
2023/05/21 05:47:11;;;;;;;12.00;8.20;;;;;;;12.93;100.00;101035.75;6114473;23;20112;-73
2023/05/21 05:49:38;;;;;;;7.90;7.20;;;;;;;12.95;100.00;101039.16;6096594;23;20018;-73
2023/05/21 05:52:05;;;;;;;9.18;7.47;;;;;;;13.45;100.00;101109.22;6117524;23;20030;-73
2023/05/21 05:54:32;;;;;;;14.57;7.70;;;;;;;13.46;100.00;101094.25;6119014;23;20550;-73
2023/05/21 05:56:58;;;;;;;8.75;7.75;;;;;;;13.25;100.00;101072.56;6089256;23;20022;-73
2023/05/21 05:59:25;;;;;;;10.52;7.95;;;;;;;12.63;100.00;100946.13;6115474;23;20029;-72
2023/05/21 06:01:51;;;;;;;8.40;7.55;;;;;;;13.22;100.00;101067.50;6112367;23;20486;-73
2023/05/21 06:04:18;;;;;;;8.45;7.65;;;;;;;13.19;100.00;101042.16;6098511;23;20030;-73
2023/05/21 06:06:44;;;;;;;7.65;7.05;;;;;;;13.64;100.00;101092.34;6108978;23;20131;-73
2023/05/21 06:09:11;;;;;;;8.88;7.13;;;;;;;13.71;100.00;101096.28;6116703;23;20033;-72
2023/05/21 06:11:39;;;;;;;11.13;7.60;;;;;;;13.64;100.00;101082.63;6109300;23;20089;-71
2023/05/21 06:14:05;;;;;;;9.73;7.40;;;;;;;13.27;100.00;101003.03;6092431;23;20536;-71
2023/05/21 06:16:32;;;;;;;7.97;7.25;;;;;;;13.94;99.36;101079.94;6119355;23;20021;-72
2023/05/21 06:18:59;;;;;;;10.07;7.90;;;;;;;14.04;98.74;101084.69;6095481;23;20037;-72
2023/05/21 06:21:25;;;;;;;8.05;7.30;;;;;;;13.89;97.41;101058.28;6116985;23;20017;-71
2023/05/21 06:23:52;;;;;;;8.25;7.60;;;;;;;14.04;97.06;101087.31;6098171;23;20029;-73
2023/05/21 06:26:18;;;;;;;8.55;7.75;;;;;;;13.26;95.83;100927.53;6112572;23;20021;-73
2023/05/21 06:28:45;;;;;;;8.27;7.40;;;;;;;14.23;95.34;101082.63;6117126;23;20041;-72
2023/05/21 06:31:12;;;;;;;10.38;8.32;;;;;;;14.10;94.83;101047.34;6112044;23;20033;-72
2023/05/21 06:33:38;;;;;;;7.97;7.25;;;;;;;13.88;93.68;101003.81;6099271;23;20037;-72
2023/05/21 06:36:05;;;;;;;8.43;7.60;;;;;;;14.29;93.30;101023.28;6111996;23;20046;-73
2023/05/21 06:38:32;;;;;;;11.10;7.70;;;;;;;14.53;92.35;101061.38;6114972;23;20029;-72
2023/05/21 06:40:58;;;;;;;9.23;8.00;;;;;;;14.72;90.87;101016.16;6118289;23;20025;-72
2023/05/21 06:43:25;;;;;;;8.55;7.40;;;;;;;14.88;89.43;101055.66;6118456;23;20051;-72
2023/05/21 06:45:51;;;;;;;7.93;7.13;;;;;;;14.29;89.12;100926.47;6092957;23;20088;-72
2023/05/21 06:48:18;;;;;;;8.95;8.05;;;;;;;15.29;87.69;101032.75;6095380;23;20036;-72
2023/05/21 06:50:44;;;;;;;8.88;7.97;;;;;;;15.36;86.65;101032.25;6112770;23;20092;-72
2023/05/21 06:53:12;;;;;;;8.85;7.95;;;;;;;14.83;85.05;100948.56;6116879;23;20527;-72
2023/05/21 06:55:39;;;;;;;9.52;7.35;;;;;;;14.87;85.43;100950.06;6115066;23;20010;-72
2023/05/21 06:58:05;;;;;;;9.90;9.02;;;;;;;15.47;84.85;101020.09;6099957;23;20115;-73
2023/05/21 07:00:34;;;;;;;9.88;8.63;;;;;;;15.20;84.40;100981.34;6120003;23;20029;-73
2023/05/21 07:03:00;;;;;;;8.70;7.82;;;;;;;14.83;84.68;100954.69;6126132;23;20029;-73
2023/05/21 07:05:28;;;;;;;10.57;8.57;;;;;;;15.34;85.61;101023.56;6089265;23;20021;-73
2023/05/21 07:07:55;;;;;;;9.60;8.60;;;;;;;15.11;85.05;100924.66;6086778;23;20037;-73
2023/05/21 07:10:21;;;;;;;9.45;8.40;;;;;;;15.64;84.70;101006.56;6092719;23;20028;-73
2023/05/21 07:12:48;;;;;;;8.40;7.60;;;;;;;15.37;84.36;100916.72;6115778;23;20013;-71
2023/05/21 07:15:14;;;;;;;9.02;7.53;;;;;;;15.87;82.49;100951.22;6114348;23;20005;-71
2023/05/21 07:17:41;;;;;;;8.82;8.10;;;;;;;16.20;80.59;100939.22;6089501;23;20042;-71
2023/05/21 07:20:08;;;;;;;13.88;8.73;;;;;;;15.97;79.56;100895.84;6112259;23;20021;-71
2023/05/21 07:22:37;;;;;;;9.43;8.50;;;;;;;16.19;79.04;100934.84;6065078;23;20041;-71
2023/05/21 07:25:05;;;;;;;9.18;8.27;;;;;;;16.57;78.68;100968.31;6112069;23;20053;-71
2023/05/21 07:27:31;;;;;;;16.23;8.35;;;;;;;16.49;77.91;100953.81;6112837;23;20025;-71
2023/05/21 07:29:58;;;;;;;9.20;8.30;;;;;;;15.85;77.95;100848.09;6113103;23;20036;-71
2023/05/21 07:32:25;;;;;;;9.77;8.45;;;;;;;16.17;78.29;100894.41;6096384;23;20498;-71
2023/05/21 07:34:52;;;;;;;8.35;7.65;;;;;;;16.42;77.44;100943.78;6118555;23;20042;-71
2023/05/21 07:37:20;;;;;;;8.77;8.02;;;;;;;16.46;77.75;100953.22;6123902;23;20050;-72
2023/05/21 07:39:46;;;;;;;9.27;8.35;;;;;;;15.84;78.75;100885.28;6082826;23;20042;-72
2023/05/21 07:42:13;;;;;;;9.23;8.38;;;;;;;16.90;78.05;100971.16;6115347;23;20078;-72
2023/05/21 07:44:39;;;;;;;10.05;8.23;;;;;;;16.41;76.65;100862.63;6053995;23;20057;-72
2023/05/21 07:47:06;;;;;;;9.95;9.05;;;;;;;16.40;76.28;100871.50;6110780;23;20070;-73
2023/05/21 07:49:32;;;;;;;9.20;8.40;;;;;;;16.73;76.39;100895.50;6090525;23;20025;-72
2023/05/21 07:51:58;;;;;;;9.45;8.43;;;;;;;17.16;75.40;100907.38;6106808;23;20026;-73
2023/05/21 07:54:27;;;;;;;10.55;9.07;;;;;;;17.00;74.95;100865.25;6090708;23;20028;-72
2023/05/21 07:56:54;;;;;;;13.55;8.82;;;;;;;16.98;74.73;100855.72;6110912;23;20091;-73
2023/05/21 07:59:20;;;;;;;9.63;8.63;;;;;;;17.25;74.06;100889.88;6112007;23;20033;-73
2023/05/21 08:01:47;;;;;;;9.77;8.85;;;;;;;17.19;73.92;100877.94;6117750;23;20029;-73
2023/05/21 08:04:13;;;;;;;10.52;8.82;;;;;;;16.83;75.03;100849.78;6116494;23;20088;-72
2023/05/21 08:06:40;;;;;;;10.82;8.82;;;;;;;16.88;75.39;100851.13;6055999;23;20026;-73
2023/05/21 08:09:07;;;;;;;11.85;8.85;;;;;;;16.89;75.18;100866.06;6113064;23;20630;-73
2023/05/21 08:11:33;;;;;;;10.70;9.00;;;;;;;17.20;74.71;100897.34;6082183;23;20048;-72
2023/05/21 08:13:59;;;;;;;10.68;9.40;;;;;;;17.53;75.16;100918.59;6114516;23;20091;-74
2023/05/21 08:16:26;;;;;;;10.55;8.77;;;;;;;17.17;75.09;100818.03;6108688;23;20029;-73
2023/05/21 08:18:52;;;;;;;11.95;8.60;;;;;;;18.14;72.78;100897.00;6119190;23;20037;-73
2023/05/21 08:21:19;;;;;;;10.65;8.77;;;;;;;18.02;71.77;100851.97;6111220;23;20103;-73
2023/05/21 08:23:50;;;;;;;9.98;7.93;;;;;;;17.80;72.29;100852.84;6066660;23;20036;-74
2023/05/21 08:26:17;;;;;;;9.35;8.45;;;;;;;17.73;71.62;100842.72;6120204;23;20017;-74
2023/05/21 08:28:43;;;;;;;10.43;8.57;;;;;;;17.56;72.56;100795.47;6096541;23;20026;-73
2023/05/21 08:31:10;;;;;;;9.30;8.43;;;;;;;18.28;71.24;100866.66;6091261;23;20025;-73
2023/05/21 08:33:37;;;;;;;9.73;8.75;;;;;;;18.32;70.73;100844.19;6119142;23;20467;-73
2023/05/21 08:36:07;;;;;;;10.05;9.05;;;;;;;18.10;71.80;100799.06;6092977;23;20492;-73
2023/05/21 08:38:33;;;;;;;9.52;7.95;;;;;;;18.51;71.43;100879.84;6115779;23;20115;-73
2023/05/21 08:41:00;;;;;;;9.27;8.40;;;;;;;18.12;70.04;100742.22;6090730;23;20473;-73
2023/05/21 08:43:27;;;;;;;10.25;9.13;;;;;;;18.29;68.67;100727.53;6115552;23;20026;-72
2023/05/21 08:45:56;;;;;;;10.23;9.23;;;;;;;18.26;70.57;100799.53;6089307;23;20078;-72
2023/05/21 08:48:22;;;;;;;9.60;8.73;;;;;;;18.40;71.14;100846.22;6118189;23;20078;-73
2023/05/21 08:50:51;;;;;;;9.93;8.40;;;;;;;18.33;70.37;100805.16;6088968;23;20010;-73
2023/05/21 08:53:17;;;;;;;9.90;8.27;;;;;;;18.43;70.36;100826.50;6091859;23;20421;-72
2023/05/21 08:55:57;;;;;;;9.70;8.50;;;;;;;18.06;70.11;100736.56;6091887;23;20163;-73
2023/05/21 08:58:23;;;;;;;11.05;8.75;;;;;;;18.49;68.50;100765.69;6116388;23;20496;-73
2023/05/21 09:00:50;;;;;;;9.63;8.82;;;;;;;18.28;69.62;100741.78;6089644;23;20093;-73
2023/05/21 09:03:16;;;;;;;10.20;9.07;;;;;;;18.50;70.24;100809.06;6107388;23;20041;-72
2023/05/21 09:05:44;;;;;;;10.18;9.23;;;;;;;18.60;71.65;100790.53;6083973;23;20026;-73
2023/05/21 09:08:17;;;;;;;11.40;9.52;;;;;;;19.40;68.34;100808.44;6109005;23;20035;-73
2023/05/21 09:10:49;;;;;;;11.55;8.73;;;;;;;19.91;68.58;100826.16;6089535;23;20030;-73
2023/05/21 09:13:17;;;;;;;8.95;8.15;;;;;;;19.73;66.04;100742.59;6120883;23;20056;-73
2023/05/21 09:15:44;;;;;;;10.48;9.45;;;;;;;19.59;65.61;100714.50;6121693;23;20162;-73
2023/05/21 09:18:11;;;;;;;10.65;9.00;;;;;;;19.25;65.39;100688.25;6121874;23;20045;-73
2023/05/21 09:20:38;;;;;;;9.38;8.48;;;;;;;19.51;66.20;100717.84;6083932;23;20021;-73
2023/05/21 09:23:11;;;;;;;11.30;9.50;;;;;;;18.73;66.46;100680.34;6092286;23;20038;-73
2023/05/21 09:25:37;;;;;;;;;;;;;;;19.46;66.98;100769.81;6111105;23;20029;-74
2023/05/21 09:28:11;;;;;;;10.05;9.05;;;;;;;19.25;66.19;100687.41;6115836;23;19929;-74
2023/05/21 09:30:46;;;;;;;11.05;9.40;;;;;;;19.55;66.79;100744.22;6087645;23;20033;-74
2023/05/21 09:33:23;;;;;;;9.27;8.48;;;;;;;20.30;65.41;100762.22;6120743;23;20036;-74
2023/05/21 09:35:49;;;;;;;10.93;9.60;;;;;;;20.43;64.37;100739.78;6117051;23;20022;-73
2023/05/21 09:38:16;;;;;;;10.48;9.52;;;;;;;20.23;63.60;100675.84;6118362;23;20034;-73
2023/05/21 09:40:47;;;;;;;9.88;8.88;;;;;;;20.22;63.68;100700.78;6087527;23;20265;-74
2023/05/21 09:43:16;;;;;;;9.93;8.93;;;;;;;20.47;65.04;100741.16;6118598;23;20033;-73
2023/05/21 09:45:54;;;;;;;14.05;9.13;;;;;;;20.06;64.27;100664.06;6109745;23;20027;-73
2023/05/21 09:48:41;;;;;;;9.95;8.95;;;;;;;20.78;65.33;100767.63;6114340;23;20029;-73
2023/05/21 09:51:12;;;;;;;10.35;9.32;;;;;;;20.53;64.60;100738.75;6087128;23;20017;-73
2023/05/21 09:53:58;;;;;;;10.43;9.38;;;;;;;20.20;65.67;100732.06;6114084;23;20122;-73
2023/05/21 09:56:28;;;;;;;12.90;9.55;;;;;;;20.81;63.83;100733.53;6091114;23;20022;-73
2023/05/21 09:58:57;;;;;;;10.70;9.60;;;;;;;21.05;64.16;100751.69;6118010;23;20053;-73
2023/05/21 10:01:23;;;;;;;11.48;9.95;;;;;;;20.76;62.03;100639.75;6118730;23;20037;-74
2023/05/21 10:03:55;;;;;;;11.73;9.27;;;;;;;21.07;62.55;100715.00;6068484;23;20707;-73
2023/05/21 10:06:31;;;;;;;11.98;9.15;;;;;;;20.25;63.08;100614.41;6114346;23;20660;-73
2023/05/21 10:09:00;;;;;;;12.50;9.68;;;;;;;20.62;64.10;100718.41;6090201;23;20085;-73
2023/05/21 10:11:30;;;;;;;9.88;8.88;;;;;;;20.96;64.21;100752.53;6118713;23;20020;-73
2023/05/21 10:14:03;;;;;;;15.80;9.75;;;;;;;20.83;62.75;100664.03;6091785;23;20014;-72
2023/05/21 10:16:32;;;;;;;11.57;9.07;;;;;;;21.08;62.13;100702.50;6114913;23;20020;-72
2023/05/21 10:18:59;;;;;;;11.27;9.25;;;;;;;21.07;61.22;100655.47;6087677;23;20577;-73
2023/05/21 10:21:26;;;;;;;11.30;9.38;;;;;;;21.07;61.27;100671.50;6110461;23;20082;-73
2023/05/21 10:23:57;;;;;;;12.15;8.93;;;;;;;20.87;61.35;100641.41;6096254;23;20046;-73
2023/05/21 10:26:25;;;;;;;11.00;9.48;;;;;;;21.16;62.22;100715.94;6118355;23;20484;-73
2023/05/21 10:28:54;;;;;;;10.60;9.52;;;;;;;21.49;63.33;100793.81;6094901;23;20021;-74
2023/05/21 10:31:22;;;;;;;18.15;9.90;;;;;;;21.22;62.51;100750.03;6086818;23;20017;-73
2023/05/21 10:33:49;;;;;;;11.45;9.85;;;;;;;21.40;62.11;100719.88;6087869;23;20025;-73
2023/05/21 10:36:19;;;;;;;11.18;9.77;;;;;;;22.06;61.50;100762.31;6118772;23;20107;-74
2023/05/21 10:38:45;;;;;;;10.30;9.13;;;;;;;21.49;60.62;100645.09;6111403;23;20032;-73
2023/05/21 10:41:15;;;;;;;10.60;9.60;;;;;;;22.30;60.61;100726.13;6118938;23;20088;-73
2023/05/21 10:43:53;;;;;;;13.55;10.07;;;;;;;22.46;57.60;100618.44;6113406;23;20083;-73
2023/05/21 10:46:40;;;;;;;11.15;9.57;;;;;;;22.83;58.41;100695.69;6089684;23;20666;-73
2023/05/21 10:49:37;;;;;;;10.38;9.48;;;;;;;22.34;60.19;100722.16;6090423;23;20121;-74
2023/05/21 10:52:31;;;;;;;12.85;10.18;;;;;;;22.57;57.90;100609.28;6115786;23;20025;-73
2023/05/21 10:55:22;;;;;;;13.35;9.90;;;;;;;22.92;58.60;100734.03;6121731;23;20778;-73
2023/05/21 10:58:11;;;;;;;17.17;9.43;;;;;;;22.50;60.55;100785.59;6113228;23;20021;-73
2023/05/21 11:00:38;;;;;;;11.85;9.75;;;;;;;22.30;58.79;100691.38;6116766;23;20017;-73
2023/05/21 11:03:06;;;;;;;10.60;9.48;;;;;;;22.90;58.64;100730.69;6108452;23;20685;-74
2023/05/21 11:05:54;;;;;;;10.68;9.55;;;;;;;22.93;56.57;100631.31;6085861;23;21158;-74
2023/05/21 11:08:22;;;;;;;9.40;8.57;;;;;;;22.42;57.23;100609.88;6103260;23;20032;-73
2023/05/21 11:10:54;;;;;;;11.48;9.20;;;;;;;22.38;57.11;100637.13;6098903;23;20158;-73
2023/05/21 11:13:20;;;;;;;11.00;9.90;;;;;;;22.92;58.00;100709.94;6109941;23;20044;-73
2023/05/21 11:15:56;;;;;;;12.43;10.40;;;;;;;22.72;57.57;100674.56;6091887;23;20796;-73
2023/05/21 11:18:23;;;;;;;14.13;10.45;;;;;;;22.38;58.15;100677.22;6120684;23;20032;-73
2023/05/21 11:20:50;;;;;;;14.32;10.45;;;;;;;22.03;58.77;100665.56;6115217;23;20013;-73
2023/05/21 11:23:20;;;;;;;11.32;9.40;;;;;;;22.22;60.86;100775.00;6117826;23;20094;-73